Detall de PIREP

Printer-friendly versionPDF version

[2009/11/22 11:27:00]
Flight IATA:CT3128
Pilot Number:011
Company ICAO:CAT
Aircraft Type:F50/A
PAX:50
Departing Airport: LEVC
Destination Airport: LEZG
Alternate Airport:LEMD
Online: VATSIM
Route:TATOS A34 MLA
Flight Level:FL180
No Slew and time accel
No pause
Crash detect
Detect pilot in Cockpit between each 30 and 45 minutes
11:27 Zero fuel Weight: 41685 Lbs, Fuel Weight: 2237 Lbs
11:27 VATSIM:LEVC 221100Z 30018KT 9999 FEW035 21/07 Q1026 NOSIG
11:27 VATSIM:LEZG 221100Z 33008KT 290V010 9999 FEW040 16/04 Q1027
11:27 Parking Brakes off
11:30 Take-off
11:30 Take off Weight: 43885 Lbs
11:30 Wind: 303 @ 018 Knots Heading: 297
11:30 POS N39 29 20 W000 28 50
11:30 Gear Up: 147 Knots
11:30 Flaps:3 at 148 Knots
11:34 Flaps:2 at 171 Knots
11:34 Flaps:1 at 173 Knots
11:34 Flaps:0 at 174 Knots
11:44 TOC
11:44 Fuel Weight: 1775 Lb
11:45 Wind:289@039 Knots Head
ing: 017 Ground Speed: 257 Knots Altitude 17985 ft
11:47 TOD
11:47 Fuel Weight: 1673 Lb
11:48 TOC
11:48 Fuel Weight: 1667 Lb
12:00 Wind:309@023 Knots Heading: 000 Ground Speed: 246 Knots Altitude 18343 ft
12:02 TOD
12:02 Fuel Weight: 1320 Lb
12:15 Wind:317@016 Knots Heading: 305 Ground Speed: 155 Knots Altitude 6361 ft
12:17 Flaps:1 at 146 Knots
12:17 Flaps:2 at 144 Knots
12:17 Flaps:3 at 118 Knots
12:18 Gear Down: 122 Knots
12:19 Flaps:4 at 107 Knots
12:22 Flaps:5 at 93 Knots
12:23 Flaps:6 at 103 Knots
12:24 TouchDown:Rate -363 ft/min Speed: 79 Knots
12:24 VATSIM:LEZG 221200Z 32008KT 280V360 9999 FEW040 17/05 Q1027
12:25 Land
12:25 Wind:321@008 Knots
12:25 Heading: 297
12:25 Flight Duration: 00:55
12:25 Landing Weight: 42873 Lbs
12:25 POS N41 39 32 W001 00 59
12:33 Parking brakes on
12:33 Block to Block Duration: 01:06
12:33 Final F
uel: 1124 Lbls
12:33 Spent Fuel: 1113 Lbls
12:33 Flight Length: 115 NM
12:33 TOD Land Length: 18 NM

Exportar CSV

Powered by Drupal - Modified by Danger4k